createdAt,value
2024-04-07T00:01:56.388Z,13.14
2024-04-07T00:04:24.467Z,13.16
2024-04-07T00:06:52.971Z,13.16
2024-04-07T00:09:21.091Z,13.16
2024-04-07T00:11:49.842Z,13.16
2024-04-07T00:14:18.050Z,13.16
2024-04-07T00:16:45.530Z,13.14
2024-04-07T00:19:15.510Z,13.10
2024-04-07T00:21:46.463Z,13.06
2024-04-07T00:24:14.280Z,13.04
2024-04-07T00:26:45.103Z,13.03
2024-04-07T00:29:13.250Z,12.99
2024-04-07T00:31:41.581Z,12.95
2024-04-07T00:34:14.309Z,12.92
2024-04-07T00:36:42.496Z,12.90
2024-04-07T00:39:09.946Z,12.88
2024-04-07T00:41:38.052Z,12.85
2024-04-07T00:44:05.521Z,12.82
2024-04-07T00:46:33.334Z,12.78
2024-04-07T00:49:02.049Z,12.73
2024-04-07T00:51:30.107Z,12.68
2024-04-07T00:53:58.343Z,12.67
2024-04-07T00:56:31.587Z,12.64
2024-04-07T00:59:06.889Z,12.62
2024-04-07T01:01:34.259Z,12.60
2024-04-07T01:04:06.633Z,12.58
2024-04-07T01:06:40.024Z,12.57
2024-04-07T01:09:10.384Z,12.56
2024-04-07T01:11:41.839Z,12.54
2024-04-07T01:14:13.533Z,12.52
2024-04-07T01:16:42.329Z,12.49
2024-04-07T01:19:11.241Z,12.45
2024-04-07T01:21:38.814Z,12.41
2024-04-07T01:24:06.843Z,12.36
2024-04-07T01:26:35.028Z,12.31
2024-04-07T01:29:02.629Z,12.22
2024-04-07T01:31:32.035Z,12.13
2024-04-07T01:34:00.442Z,12.07
2024-04-07T01:36:31.200Z,12.01
2024-04-07T01:38:59.285Z,11.96
2024-04-07T01:41:30.450Z,11.93
2024-04-07T01:44:03.320Z,11.90
2024-04-07T01:46:30.759Z,11.87
2024-04-07T01:48:58.761Z,11.85
2024-04-07T01:51:28.137Z,11.82
2024-04-07T01:53:55.196Z,11.80
2024-04-07T01:56:23.064Z,11.76
2024-04-07T01:58:51.107Z,11.74
2024-04-07T02:01:18.550Z,11.71
2024-04-07T02:03:50.846Z,11.69
2024-04-07T02:06:19.110Z,11.67
2024-04-07T02:08:46.688Z,11.64
2024-04-07T02:11:14.028Z,11.62
2024-04-07T02:13:41.742Z,11.60
2024-04-07T02:16:09.238Z,11.57
2024-04-07T02:18:36.999Z,11.55
2024-04-07T02:21:07.843Z,11.53
2024-04-07T02:23:35.773Z,11.51
2024-04-07T02:26:07.948Z,11.49
2024-04-07T02:28:36.415Z,11.45
2024-04-07T02:31:03.996Z,11.41
2024-04-07T02:33:32.086Z,11.37
2024-04-07T02:36:00.554Z,11.36
2024-04-07T02:38:28.634Z,11.33
2024-04-07T02:40:56.463Z,11.30
2024-04-07T02:43:24.505Z,11.27
2024-04-07T02:46:11.245Z,11.24
2024-04-07T02:48:44.639Z,11.21
2024-04-07T02:51:16.838Z,11.17
2024-04-07T02:53:44.974Z,11.14
2024-04-07T02:56:16.426Z,11.11
2024-04-07T02:58:44.511Z,11.08
2024-04-07T03:01:12.595Z,11.05
2024-04-07T03:03:41.283Z,11.02
2024-04-07T03:06:12.780Z,10.99
2024-04-07T03:08:41.016Z,10.96
2024-04-07T03:11:08.583Z,10.93
2024-04-07T03:13:37.077Z,10.89
2024-04-07T03:16:13.895Z,10.84
2024-04-07T03:18:42.101Z,10.81
2024-04-07T03:21:10.845Z,10.79
2024-04-07T03:23:38.242Z,10.77
2024-04-07T03:26:07.130Z,10.76
2024-04-07T03:28:34.316Z,10.76
2024-04-07T03:31:04.487Z,10.75
2024-04-07T03:33:36.769Z,10.74
2024-04-07T03:36:05.047Z,10.74
2024-04-07T03:38:32.699Z,10.73
2024-04-07T03:41:04.331Z,10.73
2024-04-07T03:44:04.215Z,10.72
2024-04-07T03:46:34.256Z,10.72
2024-04-07T03:49:02.059Z,10.71
2024-04-07T03:51:29.997Z,10.70
2024-04-07T03:53:59.340Z,10.70
2024-04-07T03:56:29.620Z,10.67
2024-04-07T03:59:00.401Z,10.66
2024-04-07T04:01:28.436Z,10.66
2024-04-07T04:03:56.117Z,10.65
2024-04-07T04:06:26.454Z,10.64
2024-04-07T04:08:58.299Z,10.60
2024-04-07T04:11:30.380Z,10.56
2024-04-07T04:14:00.329Z,10.56
2024-04-07T04:16:31.272Z,10.57
2024-04-07T04:18:59.108Z,10.57
2024-04-07T04:21:26.142Z,10.60
2024-04-07T04:23:57.055Z,10.62
2024-04-07T04:26:25.679Z,10.64
2024-04-07T04:28:54.034Z,10.66
2024-04-07T04:31:22.019Z,10.73
2024-04-07T04:33:51.058Z,10.83
2024-04-07T04:36:18.625Z,10.96
2024-04-07T04:38:46.612Z,11.09
2024-04-07T04:41:15.064Z,11.23
2024-04-07T04:43:51.974Z,11.36
2024-04-07T04:46:19.902Z,11.44
2024-04-07T04:48:47.961Z,11.51
2024-04-07T04:51:17.620Z,11.58
2024-04-07T04:53:50.908Z,11.76
2024-04-07T04:56:19.343Z,11.91
2024-04-07T04:58:48.710Z,11.96
2024-04-07T05:01:17.272Z,12.00
2024-04-07T05:03:45.786Z,12.10
2024-04-07T05:06:17.418Z,12.22
2024-04-07T05:08:53.347Z,12.36
2024-04-07T05:11:23.580Z,12.59
2024-04-07T05:13:58.331Z,12.84
2024-04-07T05:16:25.788Z,13.06
2024-04-07T05:18:54.397Z,13.27
2024-04-07T05:21:21.789Z,13.49
2024-04-07T05:23:51.009Z,13.73
2024-04-07T05:26:24.951Z,13.95
2024-04-07T05:28:52.232Z,14.21
2024-04-07T05:31:19.257Z,14.47
2024-04-07T05:33:48.879Z,14.78
2024-04-07T05:36:22.902Z,15.30
2024-04-07T05:38:53.099Z,16.10
2024-04-07T05:41:20.408Z,17.04
2024-04-07T05:43:48.666Z,17.96
2024-04-07T05:46:16.259Z,18.85
2024-04-07T05:48:48.424Z,19.52
2024-04-07T05:51:18.439Z,20.37
2024-04-07T05:53:45.663Z,21.24
2024-04-07T05:56:13.218Z,22.16
2024-04-07T05:58:41.714Z,22.94
2024-04-07T06:01:30.644Z,23.41
2024-04-07T06:03:57.930Z,24.13
2024-04-07T06:06:25.262Z,24.91
2024-04-07T06:08:53.319Z,25.69
2024-04-07T06:11:21.439Z,26.51
2024-04-07T06:13:48.848Z,27.25
2024-04-07T06:16:16.567Z,28.02
2024-04-07T06:18:47.155Z,28.71
2024-04-07T06:21:16.926Z,29.38
2024-04-07T06:23:44.611Z,30.00
2024-04-07T06:26:15.037Z,30.61
2024-04-07T06:29:03.705Z,31.21
2024-04-07T06:31:30.628Z,31.84
2024-04-07T06:33:57.881Z,32.48
2024-04-07T06:36:28.145Z,33.08
2024-04-07T06:38:56.082Z,33.60
2024-04-07T06:41:23.491Z,34.13
2024-04-07T06:43:52.233Z,34.60
2024-04-07T06:46:21.219Z,35.12
2024-04-07T06:48:48.355Z,35.54
2024-04-07T06:51:16.457Z,35.90
2024-04-07T06:53:44.185Z,36.27
2024-04-07T06:56:11.103Z,36.68
2024-04-07T06:58:38.776Z,37.12
2024-04-07T07:01:06.962Z,37.57
2024-04-07T07:03:34.199Z,38.00
2024-04-07T07:06:02.914Z,38.44
2024-04-07T07:08:29.788Z,38.86
2024-04-07T07:11:00.999Z,39.15
2024-04-07T07:13:34.007Z,39.39
2024-04-07T07:16:01.924Z,39.75
2024-04-07T07:18:29.578Z,40.13
2024-04-07T07:20:57.522Z,40.44
2024-04-07T07:23:51.454Z,40.62
2024-04-07T07:26:18.669Z,40.76
2024-04-07T07:28:52.191Z,40.67
2024-04-07T07:31:20.551Z,40.63
2024-04-07T07:33:49.526Z,40.80
2024-04-07T07:36:17.821Z,41.09
2024-04-07T07:38:47.825Z,41.18
2024-04-07T07:41:18.699Z,41.28
2024-04-07T07:43:47.142Z,41.50
2024-04-07T07:46:15.063Z,41.81
2024-04-07T07:49:02.084Z,42.00
2024-04-07T07:51:29.084Z,41.94
2024-04-07T07:53:56.146Z,41.91
2024-04-07T07:56:23.255Z,42.11
2024-04-07T07:58:51.734Z,42.25
2024-04-07T08:01:20.435Z,42.39
2024-04-07T08:04:07.635Z,42.58
2024-04-07T08:06:38.222Z,42.71
2024-04-07T08:09:05.859Z,42.66
2024-04-07T08:11:36.069Z,42.14
2024-04-07T08:14:03.791Z,41.44
2024-04-07T08:16:30.818Z,40.67
2024-04-07T08:19:01.940Z,40.14
2024-04-07T08:21:29.367Z,39.83
2024-04-07T08:23:56.981Z,39.44
2024-04-07T08:26:26.321Z,38.97
2024-04-07T08:28:55.461Z,38.27
2024-04-07T08:31:25.009Z,37.40
2024-04-07T08:33:52.340Z,36.72
2024-04-07T08:36:19.834Z,36.18
2024-04-07T08:38:47.527Z,35.71
2024-04-07T08:41:15.003Z,35.45
2024-04-07T08:43:55.868Z,35.23
2024-04-07T08:46:46.212Z,34.84
2024-04-07T08:52:37.939Z,33.79
2024-04-07T08:55:07.259Z,33.32
2024-04-07T08:57:38.898Z,32.88
2024-04-07T09:00:09.558Z,32.51
2024-04-07T09:02:37.125Z,32.10
2024-04-07T09:05:07.655Z,31.60
2024-04-07T09:07:38.090Z,31.06
2024-04-07T09:10:07.305Z,30.64
2024-04-07T09:12:34.219Z,30.26
2024-04-07T09:15:02.199Z,29.94
2024-04-07T09:17:30.707Z,29.54
2024-04-07T09:19:59.306Z,29.03
2024-04-07T09:22:27.358Z,28.69
2024-04-07T09:25:02.909Z,28.49
2024-04-07T09:27:31.120Z,28.23
2024-04-07T09:30:00.219Z,27.96
2024-04-07T09:32:29.993Z,27.68
2024-04-07T09:34:58.403Z,27.38
2024-04-07T09:37:26.917Z,27.23
2024-04-07T09:39:53.791Z,27.09
2024-04-07T09:42:29.735Z,26.91
2024-04-07T09:45:03.368Z,26.78
2024-04-07T09:47:35.509Z,26.63
2024-04-07T09:50:21.456Z,26.42
2024-04-07T09:52:57.843Z,26.23
2024-04-07T09:55:31.071Z,26.09
2024-04-07T09:58:01.304Z,25.97
2024-04-07T10:00:32.540Z,25.81
2024-04-07T10:03:02.983Z,25.69
2024-04-07T10:05:32.363Z,25.50
2024-04-07T10:08:00.058Z,25.26
2024-04-07T10:10:27.318Z,25.14
2024-04-07T10:12:55.336Z,25.06
2024-04-07T10:15:22.968Z,25.03
2024-04-07T10:17:51.192Z,24.97
2024-04-07T10:20:25.286Z,24.89
2024-04-07T10:22:53.296Z,24.79
2024-04-07T10:25:21.425Z,24.69
2024-04-07T10:27:48.389Z,24.61
2024-04-07T10:30:16.322Z,24.53
2024-04-07T10:32:43.789Z,24.39
2024-04-07T10:35:12.077Z,24.25
2024-04-07T10:37:40.750Z,24.13
2024-04-07T10:40:10.611Z,24.03
2024-04-07T10:42:41.733Z,23.95
2024-04-07T10:45:10.524Z,23.90
2024-04-07T10:47:37.399Z,23.85
2024-04-07T10:50:08.686Z,23.78
2024-04-07T10:52:37.422Z,23.73
2024-04-07T10:55:06.584Z,23.69
2024-04-07T10:57:34.337Z,23.67
2024-04-07T11:00:03.537Z,23.64
2024-04-07T11:02:30.744Z,23.61
2024-04-07T11:04:58.066Z,23.55
2024-04-07T11:07:26.401Z,23.49
2024-04-07T11:10:02.099Z,23.44
2024-04-07T11:12:29.751Z,23.41
2024-04-07T11:14:58.275Z,23.36
2024-04-07T11:17:39.535Z,23.28
2024-04-07T11:20:12.979Z,23.22
2024-04-07T11:22:40.690Z,23.21
2024-04-07T11:25:07.836Z,23.17
2024-04-07T11:27:35.491Z,23.09
2024-04-07T11:30:03.567Z,23.01
2024-04-07T11:32:32.402Z,22.98
2024-04-07T11:34:59.852Z,22.96
2024-04-07T11:37:27.546Z,22.98
2024-04-07T11:39:57.236Z,22.99
2024-04-07T11:42:25.217Z,23.00
2024-04-07T11:44:52.764Z,23.04
2024-04-07T11:47:20.412Z,23.06
2024-04-07T11:49:49.765Z,23.05
2024-04-07T11:52:17.211Z,23.03
2024-04-07T11:54:45.064Z,22.97
2024-04-07T11:57:14.093Z,22.92
2024-04-07T11:59:41.415Z,22.85
2024-04-07T12:02:10.249Z,22.76
2024-04-07T12:04:37.237Z,22.73
2024-04-07T12:07:05.048Z,22.74
2024-04-07T12:09:32.926Z,22.72
2024-04-07T12:12:00.622Z,22.65
2024-04-07T12:14:29.238Z,22.60
2024-04-07T12:16:58.099Z,22.59
2024-04-07T12:19:26.073Z,22.58
2024-04-07T12:21:54.742Z,22.60
2024-04-07T12:24:23.207Z,22.65
2024-04-07T12:26:54.095Z,22.70
2024-04-07T12:29:22.287Z,22.68
2024-04-07T12:31:50.349Z,22.67
2024-04-07T12:34:18.501Z,22.69
2024-04-07T12:36:46.244Z,22.71
2024-04-07T12:39:15.625Z,22.73
2024-04-07T12:41:45.293Z,22.75
2024-04-07T12:44:13.773Z,22.76
2024-04-07T12:46:40.859Z,22.76
2024-04-07T12:49:10.520Z,22.79
2024-04-07T12:51:40.815Z,22.83
2024-04-07T12:54:09.828Z,22.86
2024-04-07T12:56:37.303Z,22.86
2024-04-07T12:59:05.521Z,22.86
2024-04-07T13:01:35.784Z,22.86
2024-04-07T13:04:03.643Z,22.86
2024-04-07T13:06:31.681Z,22.81
2024-04-07T13:09:00.102Z,22.92
2024-04-07T13:11:28.494Z,22.96
2024-04-07T13:13:56.325Z,23.02
2024-04-07T13:16:25.011Z,23.06
2024-04-07T13:18:52.749Z,23.09
2024-04-07T13:21:22.298Z,23.08
2024-04-07T13:23:49.990Z,23.07
2024-04-07T13:26:18.122Z,23.07
2024-04-07T13:28:45.615Z,23.05
2024-04-07T13:31:13.828Z,23.01
2024-04-07T13:33:40.943Z,23.00
2024-04-07T13:36:08.166Z,23.02
2024-04-07T13:38:35.972Z,23.04
2024-04-07T13:41:03.454Z,23.07
2024-04-07T13:43:31.311Z,23.11
2024-04-07T13:45:59.317Z,23.15
2024-04-07T13:48:27.392Z,23.21
2024-04-07T13:50:57.878Z,23.24
2024-04-07T13:53:28.035Z,23.30
2024-04-07T13:55:55.253Z,23.36
2024-04-07T13:58:23.878Z,23.42
2024-04-07T14:00:51.219Z,23.47
2024-04-07T14:03:18.647Z,23.53
2024-04-07T14:05:47.110Z,23.59
2024-04-07T14:08:17.168Z,23.64
2024-04-07T14:10:48.670Z,23.66
2024-04-07T14:13:16.495Z,23.71
2024-04-07T14:15:44.641Z,23.73
2024-04-07T14:18:13.007Z,23.72
2024-04-07T14:20:43.522Z,23.73
2024-04-07T14:23:11.019Z,23.72
2024-04-07T14:25:40.108Z,23.66
2024-04-07T14:28:07.924Z,23.62
2024-04-07T14:30:35.754Z,23.62
2024-04-07T14:33:04.083Z,23.61
2024-04-07T14:35:31.314Z,23.60
2024-04-07T14:37:58.824Z,23.59
2024-04-07T14:40:28.015Z,23.60
2024-04-07T14:42:56.614Z,23.61
2024-04-07T14:45:25.107Z,23.61
2024-04-07T14:47:52.097Z,23.61
2024-04-07T14:50:21.626Z,23.62
2024-04-07T14:52:49.854Z,23.63
2024-04-07T14:55:18.104Z,23.63
2024-04-07T14:57:45.364Z,23.61
2024-04-07T15:00:13.777Z,23.61
2024-04-07T15:02:41.230Z,23.60
2024-04-07T15:05:09.380Z,23.56
2024-04-07T15:07:38.145Z,23.53
2024-04-07T15:10:06.529Z,23.49
2024-04-07T15:12:34.590Z,23.41
2024-04-07T15:15:02.372Z,23.36
2024-04-07T15:17:29.903Z,23.31
2024-04-07T15:19:56.917Z,23.24
2024-04-07T15:22:24.367Z,23.16
2024-04-07T15:24:55.863Z,23.11
2024-04-07T15:27:22.923Z,23.03
2024-04-07T15:29:51.630Z,22.98
2024-04-07T15:32:18.555Z,22.91
2024-04-07T15:34:47.019Z,22.85
2024-04-07T15:37:16.702Z,22.78
2024-04-07T15:39:44.926Z,22.74
2024-04-07T15:42:13.156Z,22.70
2024-04-07T15:44:41.065Z,22.66
2024-04-07T15:47:09.104Z,22.62
2024-04-07T15:49:36.436Z,22.58
2024-04-07T15:52:05.525Z,22.53
2024-04-07T15:54:33.248Z,22.48
2024-04-07T15:57:01.134Z,22.43
2024-04-07T15:59:29.947Z,22.37
2024-04-07T16:01:57.526Z,22.24
2024-04-07T16:04:24.814Z,22.15
2024-04-07T16:06:53.087Z,22.07
2024-04-07T16:09:21.182Z,22.03
2024-04-07T16:11:49.862Z,21.99
2024-04-07T16:14:17.150Z,21.94
2024-04-07T16:16:44.696Z,21.89
2024-04-07T16:19:12.871Z,21.83
2024-04-07T16:21:40.291Z,21.78
2024-04-07T16:24:08.709Z,21.72
2024-04-07T16:26:36.136Z,21.66
2024-04-07T16:29:04.365Z,21.60
2024-04-07T16:31:31.287Z,21.52
2024-04-07T16:34:03.556Z,21.44
2024-04-07T16:36:31.821Z,21.37
2024-04-07T16:39:00.584Z,21.31
2024-04-07T16:41:28.327Z,21.24
2024-04-07T16:43:55.441Z,21.17
2024-04-07T16:46:23.458Z,21.10
2024-04-07T16:48:53.177Z,21.02
2024-04-07T16:51:20.643Z,20.94
2024-04-07T16:53:48.812Z,20.87
2024-04-07T16:56:15.821Z,20.78
2024-04-07T16:58:43.624Z,20.68
2024-04-07T17:01:11.067Z,20.59
2024-04-07T17:03:39.465Z,20.50
2024-04-07T17:06:06.876Z,20.40
2024-04-07T17:08:36.592Z,20.28
2024-04-07T17:11:06.286Z,20.16
2024-04-07T17:13:35.380Z,20.06
2024-04-07T17:16:07.399Z,19.97
2024-04-07T17:18:37.777Z,19.85
2024-04-07T17:21:04.934Z,19.76
2024-04-07T17:23:32.708Z,19.64
2024-04-07T17:26:01.309Z,19.51
2024-04-07T17:28:31.182Z,19.41
2024-04-07T17:30:58.815Z,19.32
2024-04-07T17:33:26.948Z,19.24
2024-04-07T17:35:54.795Z,19.17
2024-04-07T17:38:22.492Z,19.11
2024-04-07T17:40:51.787Z,19.04
2024-04-07T17:43:19.737Z,18.96
2024-04-07T17:45:47.138Z,18.89
2024-04-07T17:48:15.682Z,18.81
2024-04-07T17:50:42.764Z,18.73
2024-04-07T17:53:10.359Z,18.66
2024-04-07T17:55:38.260Z,18.59
2024-04-07T17:58:06.835Z,18.51
2024-04-07T18:00:35.146Z,18.44
2024-04-07T18:03:03.179Z,18.38
2024-04-07T18:05:30.734Z,18.31
2024-04-07T18:07:58.293Z,18.23
2024-04-07T18:10:27.091Z,18.14
2024-04-07T18:12:55.885Z,18.07
2024-04-07T18:15:23.203Z,18.01
2024-04-07T18:17:50.184Z,17.95
2024-04-07T18:20:18.473Z,17.90
2024-04-07T18:22:46.664Z,17.84
2024-04-07T18:25:17.583Z,17.78
2024-04-07T18:27:45.254Z,17.69
2024-04-07T18:30:13.993Z,17.62
2024-04-07T18:32:41.572Z,17.56
2024-04-07T18:35:09.697Z,17.50
2024-04-07T18:37:37.179Z,17.45
2024-04-07T18:40:05.607Z,17.38
2024-04-07T18:42:33.351Z,17.31
2024-04-07T18:45:01.289Z,17.26
2024-04-07T18:47:28.464Z,17.21
2024-04-07T18:49:55.913Z,17.17
2024-04-07T18:52:23.013Z,17.13
2024-04-07T18:54:51.110Z,17.08
2024-04-07T18:57:18.421Z,17.05
2024-04-07T18:59:46.930Z,17.00
2024-04-07T19:02:21.152Z,16.96
2024-04-07T19:04:50.664Z,16.92
2024-04-07T19:07:20.931Z,16.89
2024-04-07T19:09:50.979Z,16.85
2024-04-07T19:12:19.087Z,16.81
2024-04-07T19:14:46.406Z,16.78
2024-04-07T19:17:13.569Z,16.73
2024-04-07T19:19:46.214Z,16.68
2024-04-07T19:22:14.101Z,16.64
2024-04-07T19:24:42.695Z,16.60
2024-04-07T19:27:11.012Z,16.55
2024-04-07T19:29:38.186Z,16.51
2024-04-07T19:32:08.143Z,16.44
2024-04-07T19:34:35.828Z,16.38
2024-04-07T19:37:07.454Z,16.32
2024-04-07T19:39:36.431Z,16.29
2024-04-07T19:42:09.641Z,16.26
2024-04-07T19:44:37.283Z,16.23
2024-04-07T19:47:04.993Z,16.20
2024-04-07T19:49:33.078Z,16.16
2024-04-07T19:52:02.796Z,16.11
2024-04-07T19:54:30.979Z,16.07
2024-04-07T19:56:59.286Z,16.05
2024-04-07T19:59:27.780Z,16.01
2024-04-07T20:01:55.340Z,15.99
2024-04-07T20:04:23.147Z,15.97
2024-04-07T20:06:54.162Z,15.95
2024-04-07T20:09:25.906Z,15.93
2024-04-07T20:11:54.915Z,15.90
2024-04-07T20:14:28.483Z,15.86
2024-04-07T20:16:55.995Z,15.79
2024-04-07T20:19:24.038Z,15.73
2024-04-07T20:21:51.602Z,15.69
2024-04-07T20:24:18.969Z,15.66
2024-04-07T20:26:46.003Z,15.64
2024-04-07T20:29:13.990Z,15.63
2024-04-07T20:31:42.451Z,15.62
2024-04-07T20:34:09.889Z,15.61
2024-04-07T20:36:37.976Z,15.61
2024-04-07T20:39:06.628Z,15.59
2024-04-07T20:41:34.622Z,15.55
2024-04-07T20:44:04.340Z,15.52
2024-04-07T20:46:32.303Z,15.49
2024-04-07T20:49:00.635Z,15.44
2024-04-07T20:51:28.556Z,15.38
2024-04-07T20:53:56.550Z,15.34
2024-04-07T20:56:24.124Z,15.31
2024-04-07T20:58:52.673Z,15.29
2024-04-07T21:01:20.991Z,15.26
2024-04-07T21:03:49.165Z,15.23
2024-04-07T21:06:16.625Z,15.22
2024-04-07T21:08:45.331Z,15.21
2024-04-07T21:11:15.424Z,15.19
2024-04-07T21:13:43.703Z,15.17
2024-04-07T21:16:22.627Z,15.16
2024-04-07T21:18:50.523Z,15.14
2024-04-07T21:21:20.375Z,15.12
2024-04-07T21:23:54.366Z,15.10
2024-04-07T21:26:22.140Z,15.08
2024-04-07T21:28:50.314Z,15.07
2024-04-07T21:31:19.047Z,15.06
2024-04-07T21:33:47.136Z,15.06
2024-04-07T21:36:14.187Z,15.06
2024-04-07T21:38:43.390Z,15.05
2024-04-07T21:41:12.264Z,15.03
2024-04-07T21:43:40.194Z,15.03
2024-04-07T21:46:08.239Z,15.00
2024-04-07T21:48:35.785Z,14.98
2024-04-07T21:51:03.189Z,14.97
2024-04-07T21:53:32.154Z,14.95
2024-04-07T21:56:02.094Z,14.94
2024-04-07T21:58:29.806Z,14.92
2024-04-07T22:01:01.485Z,14.89
2024-04-07T22:03:29.003Z,14.87
2024-04-07T22:05:59.477Z,14.84
2024-04-07T22:08:26.987Z,14.81
2024-04-07T22:10:54.200Z,14.78
2024-04-07T22:13:21.425Z,14.73
2024-04-07T22:15:48.811Z,14.69
2024-04-07T22:18:16.649Z,14.64
2024-04-07T22:20:43.681Z,14.60
2024-04-07T22:23:10.910Z,14.56
2024-04-07T22:25:37.949Z,14.53
2024-04-07T22:28:05.822Z,14.49
2024-04-07T22:30:33.176Z,14.45
2024-04-07T22:33:01.258Z,14.42
2024-04-07T22:35:29.312Z,14.37
2024-04-07T22:37:57.003Z,14.32
2024-04-07T22:40:25.443Z,14.28
2024-04-07T22:42:53.010Z,14.24
2024-04-07T22:45:21.088Z,14.20
2024-04-07T22:47:49.484Z,14.15
2024-04-07T22:50:16.831Z,14.11
2024-04-07T22:52:44.262Z,14.07
2024-04-07T22:55:12.406Z,14.03
2024-04-07T22:57:39.935Z,13.98
2024-04-07T23:00:08.951Z,13.93
2024-04-07T23:02:36.823Z,13.89
2024-04-07T23:05:04.960Z,13.85
2024-04-07T23:07:35.654Z,13.78
2024-04-07T23:10:03.891Z,13.79
2024-04-07T23:12:31.614Z,13.76
2024-04-07T23:14:59.576Z,13.73
2024-04-07T23:17:29.708Z,13.70
2024-04-07T23:19:58.789Z,13.69
2024-04-07T23:22:26.915Z,13.68
2024-04-07T23:24:55.516Z,13.66
2024-04-07T23:27:22.747Z,13.64
2024-04-07T23:29:50.520Z,13.63
2024-04-07T23:32:18.928Z,13.62
2024-04-07T23:34:56.748Z,13.60
2024-04-07T23:37:28.544Z,13.57
2024-04-07T23:39:56.535Z,13.54
2024-04-07T23:42:24.207Z,13.50
2024-04-07T23:44:53.229Z,13.47
2024-04-07T23:47:20.621Z,13.44
2024-04-07T23:49:53.116Z,13.44
2024-04-07T23:52:21.392Z,13.42
2024-04-07T23:54:49.827Z,13.40
2024-04-07T23:57:17.794Z,13.39
2024-04-07T23:59:45.412Z,13.38
